sensor_id;sensor_type;location;lat;lon;timestamp;pressure;altitude;pressure_sealevel;temperature;humidity
60267;BME280;46125;61.360;-149.532;2023-07-20T00:00:00;100294.38;;;15.09;60.97
60267;BME280;46125;61.360;-149.532;2023-07-20T00:02:28;100296.18;;;15.40;63.60
60267;BME280;46125;61.360;-149.532;2023-07-20T00:04:56;100300.33;;;15.51;61.93
60267;BME280;46125;61.360;-149.532;2023-07-20T00:07:26;100297.03;;;15.98;60.14
60267;BME280;46125;61.360;-149.532;2023-07-20T00:09:54;100301.41;;;15.59;59.39
60267;BME280;46125;61.360;-149.532;2023-07-20T00:12:23;100309.58;;;16.37;59.65
60267;BME280;46125;61.360;-149.532;2023-07-20T00:14:51;100312.12;;;16.38;58.44
60267;BME280;46125;61.360;-149.532;2023-07-20T00:17:20;100308.66;;;16.15;58.22
60267;BME280;46125;61.360;-149.532;2023-07-20T00:19:48;100309.79;;;15.82;57.93
60267;BME280;46125;61.360;-149.532;2023-07-20T00:22:17;100304.07;;;14.95;60.01
60267;BME280;46125;61.360;-149.532;2023-07-20T00:24:45;100305.24;;;14.60;60.10
60267;BME280;46125;61.360;-149.532;2023-07-20T00:27:13;100314.79;;;14.79;61.66
60267;BME280;46125;61.360;-149.532;2023-07-20T00:29:42;100317.41;;;15.57;61.17
60267;BME280;46125;61.360;-149.532;2023-07-20T00:32:10;100319.32;;;14.82;61.06
60267;BME280;46125;61.360;-149.532;2023-07-20T00:34:39;100325.91;;;15.09;59.80
60267;BME280;46125;61.360;-149.532;2023-07-20T00:37:08;100329.20;;;14.96;59.75
60267;BME280;46125;61.360;-149.532;2023-07-20T00:39:38;100331.52;;;15.13;59.12
60267;BME280;46125;61.360;-149.532;2023-07-20T00:42:07;100336.76;;;15.44;58.63
60267;BME280;46125;61.360;-149.532;2023-07-20T00:44:36;100337.27;;;15.66;57.46
60267;BME280;46125;61.360;-149.532;2023-07-20T00:47:05;100335.79;;;16.24;58.06
60267;BME280;46125;61.360;-149.532;2023-07-20T00:49:34;100343.49;;;15.74;57.85
60267;BME280;46125;61.360;-149.532;2023-07-20T00:52:04;100346.18;;;16.20;57.93
60267;BME280;46125;61.360;-149.532;2023-07-20T00:54:34;100350.54;;;15.84;60.79
60267;BME280;46125;61.360;-149.532;2023-07-20T00:57:03;100359.35;;;15.58;61.72
60267;BME280;46125;61.360;-149.532;2023-07-20T00:59:42;100359.70;;;15.94;58.93
60267;BME280;46125;61.360;-149.532;2023-07-20T01:02:11;100365.64;;;16.17;57.65
60267;BME280;46125;61.360;-149.532;2023-07-20T01:04:39;100373.26;;;16.24;57.85
60267;BME280;46125;61.360;-149.532;2023-07-20T01:07:12;100379.07;;;16.53;58.16
60267;BME280;46125;61.360;-149.532;2023-07-20T01:09:48;100384.08;;;16.11;56.74
60267;BME280;46125;61.360;-149.532;2023-07-20T01:12:25;100386.50;;;17.68;55.10
60267;BME280;46125;61.360;-149.532;2023-07-20T01:14:55;100387.91;;;18.54;55.34
60267;BME280;46125;61.360;-149.532;2023-07-20T01:17:23;100390.33;;;17.92;58.19
60267;BME280;46125;61.360;-149.532;2023-07-20T01:19:51;100400.23;;;16.35;63.68
60267;BME280;46125;61.360;-149.532;2023-07-20T01:22:43;100406.76;;;17.36;59.82
60267;BME280;46125;61.360;-149.532;2023-07-20T01:25:25;100413.76;;;17.81;59.14
60267;BME280;46125;61.360;-149.532;2023-07-20T01:29:05;100419.15;;;17.23;60.46
60267;BME280;46125;61.360;-149.532;2023-07-20T01:31:40;100419.36;;;18.27;58.21
60267;BME280;46125;61.360;-149.532;2023-07-20T01:34:11;100422.27;;;18.46;58.04
60267;BME280;46125;61.360;-149.532;2023-07-20T01:36:41;100425.71;;;18.31;58.98
60267;BME280;46125;61.360;-149.532;2023-07-20T01:39:09;100427.06;;;18.42;56.42
60267;BME280;46125;61.360;-149.532;2023-07-20T01:41:39;100432.91;;;18.46;58.62
60267;BME280;46125;61.360;-149.532;2023-07-20T01:44:07;100438.33;;;18.17;58.51
60267;BME280;46125;61.360;-149.532;2023-07-20T01:46:36;100442.66;;;17.48;59.72
60267;BME280;46125;61.360;-149.532;2023-07-20T01:49:04;100444.26;;;18.27;57.95
60267;BME280;46125;61.360;-149.532;2023-07-20T01:51:33;100453.71;;;17.89;59.26
60267;BME280;46125;61.360;-149.532;2023-07-20T01:54:01;100460.28;;;18.19;59.02
60267;BME280;46125;61.360;-149.532;2023-07-20T01:56:34;100464.51;;;18.01;59.33
60267;BME280;46125;61.360;-149.532;2023-07-20T01:59:03;100464.14;;;17.87;58.64
60267;BME280;46125;61.360;-149.532;2023-07-20T02:01:31;100465.86;;;18.89;58.03
60267;BME280;46125;61.360;-149.532;2023-07-20T02:04:00;100475.71;;;17.44;61.28
60267;BME280;46125;61.360;-149.532;2023-07-20T02:06:28;100477.19;;;18.19;58.46
60267;BME280;46125;61.360;-149.532;2023-07-20T02:08:57;100477.80;;;14.81;67.04
60267;BME280;46125;61.360;-149.532;2023-07-20T02:11:25;100480.24;;;16.91;63.15
60267;BME280;46125;61.360;-149.532;2023-07-20T02:13:54;100478.14;;;17.79;60.27
60267;BME280;46125;61.360;-149.532;2023-07-20T02:16:22;100475.86;;;18.32;58.41
60267;BME280;46125;61.360;-149.532;2023-07-20T02:18:51;100474.82;;;18.57;58.30
60267;BME280;46125;61.360;-149.532;2023-07-20T02:21:25;100473.37;;;18.89;57.94
60267;BME280;46125;61.360;-149.532;2023-07-20T02:23:54;100468.87;;;19.28;57.02
60267;BME280;46125;61.360;-149.532;2023-07-20T02:26:22;100468.96;;;19.41;56.77
60267;BME280;46125;61.360;-149.532;2023-07-20T02:28:51;100468.53;;;19.21;56.78
60267;BME280;46125;61.360;-149.532;2023-07-20T02:31:19;100470.87;;;19.62;56.19
60267;BME280;46125;61.360;-149.532;2023-07-20T02:33:48;100467.43;;;18.92;57.17
60267;BME280;46125;61.360;-149.532;2023-07-20T02:36:17;100470.48;;;18.33;58.89
60267;BME280;46125;61.360;-149.532;2023-07-20T02:38:45;100468.99;;;19.21;57.21
60267;BME280;46125;61.360;-149.532;2023-07-20T02:41:14;100469.00;;;18.67;57.35
60267;BME280;46125;61.360;-149.532;2023-07-20T02:43:42;100474.87;;;18.41;57.42
60267;BME280;46125;61.360;-149.532;2023-07-20T02:46:11;100476.91;;;18.50;58.66
60267;BME280;46125;61.360;-149.532;2023-07-20T02:48:39;100478.87;;;18.90;58.54
60267;BME280;46125;61.360;-149.532;2023-07-20T02:51:07;100483.32;;;18.19;60.80
60267;BME280;46125;61.360;-149.532;2023-07-20T02:53:40;100483.06;;;18.71;59.87
60267;BME280;46125;61.360;-149.532;2023-07-20T02:56:09;100485.78;;;16.68;65.47
60267;BME280;46125;61.360;-149.532;2023-07-20T02:58:43;100487.04;;;16.56;65.47
60267;BME280;46125;61.360;-149.532;2023-07-20T03:01:11;100487.89;;;17.13;65.68
60267;BME280;46125;61.360;-149.532;2023-07-20T03:03:40;100489.77;;;17.67;63.53
60267;BME280;46125;61.360;-149.532;2023-07-20T03:06:08;100491.50;;;17.61;63.87
60267;BME280;46125;61.360;-149.532;2023-07-20T03:08:36;100495.16;;;16.06;69.40
60267;BME280;46125;61.360;-149.532;2023-07-20T03:11:05;100498.51;;;17.01;66.31
60267;BME280;46125;61.360;-149.532;2023-07-20T03:13:33;100496.64;;;17.44;64.71
60267;BME280;46125;61.360;-149.532;2023-07-20T03:16:02;100498.17;;;17.93;62.80
60267;BME280;46125;61.360;-149.532;2023-07-20T03:18:30;100500.22;;;16.79;64.62
60267;BME280;46125;61.360;-149.532;2023-07-20T03:20:58;100499.97;;;17.70;62.86
60267;BME280;46125;61.360;-149.532;2023-07-20T03:23:27;100504.18;;;17.63;62.21
60267;BME280;46125;61.360;-149.532;2023-07-20T03:25:55;100505.98;;;18.09;62.03
60267;BME280;46125;61.360;-149.532;2023-07-20T03:28:24;100504.76;;;17.85;62.71
60267;BME280;46125;61.360;-149.532;2023-07-20T03:30:54;100501.34;;;17.18;63.63
60267;BME280;46125;61.360;-149.532;2023-07-20T03:33:24;100500.55;;;17.87;62.82
60267;BME280;46125;61.360;-149.532;2023-07-20T03:35:53;100504.23;;;18.11;62.19
60267;BME280;46125;61.360;-149.532;2023-07-20T03:38:22;100501.96;;;17.86;62.98
60267;BME280;46125;61.360;-149.532;2023-07-20T03:40:51;100502.43;;;15.63;68.03
60267;BME280;46125;61.360;-149.532;2023-07-20T03:43:20;100501.69;;;16.33;66.43
60267;BME280;46125;61.360;-149.532;2023-07-20T03:45:48;100500.68;;;16.61;65.22
60267;BME280;46125;61.360;-149.532;2023-07-20T03:48:18;100503.37;;;15.99;67.05
60267;BME280;46125;61.360;-149.532;2023-07-20T03:50:48;100503.85;;;16.56;65.80
60267;BME280;46125;61.360;-149.532;2023-07-20T03:53:18;100505.42;;;17.03;64.65
60267;BME280;46125;61.360;-149.532;2023-07-20T03:55:47;100503.14;;;15.71;67.70
60267;BME280;46125;61.360;-149.532;2023-07-20T03:58:16;100505.42;;;15.98;68.19
60267;BME280;46125;61.360;-149.532;2023-07-20T04:00:46;100504.62;;;15.34;69.71
60267;BME280;46125;61.360;-149.532;2023-07-20T04:03:15;100502.66;;;16.38;66.14
60267;BME280;46125;61.360;-149.532;2023-07-20T04:05:43;100502.69;;;16.48;66.60
60267;BME280;46125;61.360;-149.532;2023-07-20T04:08:11;100506.15;;;16.95;64.68
60267;BME280;46125;61.360;-149.532;2023-07-20T04:10:42;100511.53;;;16.63;65.70
60267;BME280;46125;61.360;-149.532;2023-07-20T04:13:17;100511.38;;;16.74;65.47
60267;BME280;46125;61.360;-149.532;2023-07-20T04:15:45;100514.50;;;15.58;68.85
60267;BME280;46125;61.360;-149.532;2023-07-20T04:18:14;100517.94;;;15.60;68.57
60267;BME280;46125;61.360;-149.532;2023-07-20T04:20:42;100518.81;;;16.75;66.13
60267;BME280;46125;61.360;-149.532;2023-07-20T04:23:11;100520.46;;;15.96;66.90
60267;BME280;46125;61.360;-149.532;2023-07-20T04:25:40;100522.96;;;15.74;68.29
60267;BME280;46125;61.360;-149.532;2023-07-20T04:28:08;100522.77;;;16.32;66.85
60267;BME280;46125;61.360;-149.532;2023-07-20T04:30:37;100524.44;;;16.59;65.34
60267;BME280;46125;61.360;-149.532;2023-07-20T04:33:06;100523.04;;;14.06;72.25
60267;BME280;46125;61.360;-149.532;2023-07-20T04:35:51;100527.24;;;15.40;69.54
60267;BME280;46125;61.360;-149.532;2023-07-20T04:38:20;100526.29;;;14.72;69.91
60267;BME280;46125;61.360;-149.532;2023-07-20T04:40:50;100527.03;;;16.14;66.68
60267;BME280;46125;61.360;-149.532;2023-07-20T04:43:19;100529.91;;;16.69;65.15
60267;BME280;46125;61.360;-149.532;2023-07-20T04:45:47;100529.42;;;15.54;67.87
60267;BME280;46125;61.360;-149.532;2023-07-20T04:48:16;100526.04;;;15.81;67.73
60267;BME280;46125;61.360;-149.532;2023-07-20T04:50:45;100523.54;;;15.99;67.96
60267;BME280;46125;61.360;-149.532;2023-07-20T04:53:14;100524.19;;;15.07;69.27
60267;BME280;46125;61.360;-149.532;2023-07-20T04:55:48;100528.33;;;15.94;67.84
60267;BME280;46125;61.360;-149.532;2023-07-20T04:58:22;100530.40;;;14.84;70.33
60267;BME280;46125;61.360;-149.532;2023-07-20T05:00:51;100533.68;;;15.18;69.26
60267;BME280;46125;61.360;-149.532;2023-07-20T05:03:20;100533.56;;;15.43;69.50
60267;BME280;46125;61.360;-149.532;2023-07-20T05:05:48;100540.77;;;14.06;73.40
60267;BME280;46125;61.360;-149.532;2023-07-20T05:08:17;100536.36;;;15.56;69.66
60267;BME280;46125;61.360;-149.532;2023-07-20T05:10:45;100538.30;;;14.34;73.62
60267;BME280;46125;61.360;-149.532;2023-07-20T05:13:13;100537.47;;;15.65;69.50
60267;BME280;46125;61.360;-149.532;2023-07-20T05:15:42;100540.46;;;15.19;69.92
60267;BME280;46125;61.360;-149.532;2023-07-20T05:18:20;100539.24;;;14.63;71.05
60267;BME280;46125;61.360;-149.532;2023-07-20T05:20:49;100538.47;;;15.97;67.83
60267;BME280;46125;61.360;-149.532;2023-07-20T05:23:19;100538.86;;;15.58;67.65
60267;BME280;46125;61.360;-149.532;2023-07-20T05:25:54;100536.13;;;15.02;68.21
60267;BME280;46125;61.360;-149.532;2023-07-20T05:28:42;100538.44;;;16.45;67.17
60267;BME280;46125;61.360;-149.532;2023-07-20T05:31:11;100541.21;;;16.78;64.53
60267;BME280;46125;61.360;-149.532;2023-07-20T05:33:39;100541.99;;;16.60;64.60
60267;BME280;46125;61.360;-149.532;2023-07-20T05:36:08;100547.47;;;16.90;63.72
60267;BME280;46125;61.360;-149.532;2023-07-20T05:38:37;100549.20;;;16.46;64.99
60267;BME280;46125;61.360;-149.532;2023-07-20T05:41:06;100551.85;;;15.19;68.79
60267;BME280;46125;61.360;-149.532;2023-07-20T05:43:35;100553.11;;;15.52;68.04
60267;BME280;46125;61.360;-149.532;2023-07-20T05:46:03;100556.09;;;16.74;64.04
60267;BME280;46125;61.360;-149.532;2023-07-20T05:48:32;100552.56;;;16.67;64.81
60267;BME280;46125;61.360;-149.532;2023-07-20T05:51:00;100550.75;;;17.28;62.67
60267;BME280;46125;61.360;-149.532;2023-07-20T05:53:35;100554.15;;;16.03;65.69
60267;BME280;46125;61.360;-149.532;2023-07-20T05:56:09;100553.16;;;15.86;67.05
60267;BME280;46125;61.360;-149.532;2023-07-20T05:58:37;100553.85;;;16.02;66.19
60267;BME280;46125;61.360;-149.532;2023-07-20T06:01:07;100556.58;;;16.26;65.21
60267;BME280;46125;61.360;-149.532;2023-07-20T06:03:35;100559.47;;;15.81;66.51
60267;BME280;46125;61.360;-149.532;2023-07-20T06:06:04;100561.57;;;15.75;67.40
60267;BME280;46125;61.360;-149.532;2023-07-20T06:08:33;100563.11;;;16.23;65.72
60267;BME280;46125;61.360;-149.532;2023-07-20T06:11:01;100563.31;;;16.38;64.60
60267;BME280;46125;61.360;-149.532;2023-07-20T06:13:30;100562.03;;;16.48;63.96
60267;BME280;46125;61.360;-149.532;2023-07-20T06:15:58;100562.29;;;16.50;62.99
60267;BME280;46125;61.360;-149.532;2023-07-20T06:18:32;100560.86;;;16.29;63.14
60267;BME280;46125;61.360;-149.532;2023-07-20T06:21:02;100563.39;;;16.11;64.67
60267;BME280;46125;61.360;-149.532;2023-07-20T06:23:31;100565.74;;;16.75;62.72
60267;BME280;46125;61.360;-149.532;2023-07-20T06:26:05;100569.55;;;16.42;63.68
60267;BME280;46125;61.360;-149.532;2023-07-20T06:28:34;100572.07;;;17.04;62.04
60267;BME280;46125;61.360;-149.532;2023-07-20T06:31:03;100574.34;;;16.92;62.53
60267;BME280;46125;61.360;-149.532;2023-07-20T06:33:31;100576.70;;;17.31;61.19
60267;BME280;46125;61.360;-149.532;2023-07-20T06:36:00;100577.65;;;17.12;60.88
60267;BME280;46125;61.360;-149.532;2023-07-20T06:38:28;100580.86;;;16.44;62.28
60267;BME280;46125;61.360;-149.532;2023-07-20T06:40:57;100583.72;;;15.46;66.16
60267;BME280;46125;61.360;-149.532;2023-07-20T06:43:25;100587.82;;;16.40;63.59
60267;BME280;46125;61.360;-149.532;2023-07-20T06:45:54;100592.41;;;14.53;68.17
60267;BME280;46125;61.360;-149.532;2023-07-20T06:48:22;100594.17;;;15.73;66.27
60267;BME280;46125;61.360;-149.532;2023-07-20T06:50:52;100598.32;;;16.32;64.65
60267;BME280;46125;61.360;-149.532;2023-07-20T06:53:21;100600.93;;;14.29;69.96
60267;BME280;46125;61.360;-149.532;2023-07-20T06:55:49;100602.46;;;15.57;67.29
60267;BME280;46125;61.360;-149.532;2023-07-20T06:58:19;100601.58;;;16.20;65.04
60267;BME280;46125;61.360;-149.532;2023-07-20T07:00:47;100603.72;;;14.27;70.37
60267;BME280;46125;61.360;-149.532;2023-07-20T07:03:15;100602.13;;;15.45;67.14
60267;BME280;46125;61.360;-149.532;2023-07-20T07:05:45;100603.79;;;16.56;63.65
60267;BME280;46125;61.360;-149.532;2023-07-20T07:08:13;100604.80;;;16.96;63.19
60267;BME280;46125;61.360;-149.532;2023-07-20T07:10:42;100604.81;;;15.88;64.49
60267;BME280;46125;61.360;-149.532;2023-07-20T07:13:11;100605.55;;;17.01;63.02
60267;BME280;46125;61.360;-149.532;2023-07-20T07:15:43;100606.62;;;16.97;61.84
60267;BME280;46125;61.360;-149.532;2023-07-20T07:18:11;100604.43;;;17.33;60.81
60267;BME280;46125;61.360;-149.532;2023-07-20T07:20:40;100602.36;;;17.33;60.65
60267;BME280;46125;61.360;-149.532;2023-07-20T07:23:08;100603.81;;;17.43;60.21
60267;BME280;46125;61.360;-149.532;2023-07-20T07:25:37;100605.39;;;17.14;61.02
60267;BME280;46125;61.360;-149.532;2023-07-20T07:28:05;100607.24;;;17.00;61.30
60267;BME280;46125;61.360;-149.532;2023-07-20T07:30:34;100607.21;;;17.25;61.23
60267;BME280;46125;61.360;-149.532;2023-07-20T07:33:02;100608.91;;;17.15;61.61
60267;BME280;46125;61.360;-149.532;2023-07-20T07:35:31;100606.23;;;16.44;63.45
60267;BME280;46125;61.360;-149.532;2023-07-20T07:37:59;100607.56;;;15.97;65.07
60267;BME280;46125;61.360;-149.532;2023-07-20T07:40:27;100608.59;;;16.59;62.97
60267;BME280;46125;61.360;-149.532;2023-07-20T07:42:56;100610.46;;;16.89;63.11
60267;BME280;46125;61.360;-149.532;2023-07-20T07:45:26;100611.87;;;16.60;62.67
60267;BME280;46125;61.360;-149.532;2023-07-20T07:47:54;100611.17;;;16.80;62.80
60267;BME280;46125;61.360;-149.532;2023-07-20T07:50:23;100615.11;;;15.81;64.33
60267;BME280;46125;61.360;-149.532;2023-07-20T07:52:51;100613.07;;;16.79;62.65
60267;BME280;46125;61.360;-149.532;2023-07-20T07:55:20;100614.54;;;16.61;63.18
60267;BME280;46125;61.360;-149.532;2023-07-20T07:57:48;100614.57;;;16.59;63.25
60267;BME280;46125;61.360;-149.532;2023-07-20T08:00:18;100613.32;;;16.50;62.69
60267;BME280;46125;61.360;-149.532;2023-07-20T08:02:47;100610.16;;;16.58;63.67
60267;BME280;46125;61.360;-149.532;2023-07-20T08:05:16;100610.49;;;16.91;62.46
60267;BME280;46125;61.360;-149.532;2023-07-20T08:07:45;100612.80;;;16.39;64.24
60267;BME280;46125;61.360;-149.532;2023-07-20T08:10:13;100614.25;;;16.57;63.95
60267;BME280;46125;61.360;-149.532;2023-07-20T08:12:42;100611.55;;;16.88;62.51
60267;BME280;46125;61.360;-149.532;2023-07-20T08:15:12;100612.59;;;16.39;63.87
60267;BME280;46125;61.360;-149.532;2023-07-20T08:17:41;100614.03;;;17.03;62.55
60267;BME280;46125;61.360;-149.532;2023-07-20T08:20:13;100617.66;;;16.48;63.66
60267;BME280;46125;61.360;-149.532;2023-07-20T08:22:41;100616.44;;;15.85;65.38
60267;BME280;46125;61.360;-149.532;2023-07-20T08:25:10;100617.61;;;16.30;64.21
60267;BME280;46125;61.360;-149.532;2023-07-20T08:27:38;100623.38;;;16.63;62.96
60267;BME280;46125;61.360;-149.532;2023-07-20T08:30:08;100624.71;;;16.83;62.06
60267;BME280;46125;61.360;-149.532;2023-07-20T08:32:36;100624.79;;;16.73;61.70
60267;BME280;46125;61.360;-149.532;2023-07-20T08:35:05;100627.01;;;16.92;61.55
60267;BME280;46125;61.360;-149.532;2023-07-20T08:37:34;100627.20;;;16.85;61.51
60267;BME280;46125;61.360;-149.532;2023-07-20T08:40:09;100624.02;;;15.89;64.42
60267;BME280;46125;61.360;-149.532;2023-07-20T08:42:38;100624.94;;;16.66;61.98
60267;BME280;46125;61.360;-149.532;2023-07-20T08:45:09;100626.77;;;16.96;62.29
60267;BME280;46125;61.360;-149.532;2023-07-20T08:47:38;100627.51;;;16.95;61.67
60267;BME280;46125;61.360;-149.532;2023-07-20T08:50:13;100629.39;;;16.41;62.51
60267;BME280;46125;61.360;-149.532;2023-07-20T08:52:42;100631.23;;;17.17;61.30
60267;BME280;46125;61.360;-149.532;2023-07-20T08:55:11;100633.16;;;16.88;61.12
60267;BME280;46125;61.360;-149.532;2023-07-20T08:57:41;100631.87;;;17.06;60.42
60267;BME280;46125;61.360;-149.532;2023-07-20T09:00:14;100632.72;;;16.77;61.46
60267;BME280;46125;61.360;-149.532;2023-07-20T09:02:43;100631.81;;;17.02;60.71
60267;BME280;46125;61.360;-149.532;2023-07-20T09:05:13;100632.42;;;16.74;61.46
60267;BME280;46125;61.360;-149.532;2023-07-20T09:07:41;100635.32;;;15.77;65.21
60267;BME280;46125;61.360;-149.532;2023-07-20T09:10:10;100637.29;;;16.74;62.84
60267;BME280;46125;61.360;-149.532;2023-07-20T09:12:41;100636.57;;;14.48;68.16
60267;BME280;46125;61.360;-149.532;2023-07-20T09:15:11;100635.77;;;15.90;64.54
60267;BME280;46125;61.360;-149.532;2023-07-20T09:17:41;100639.44;;;16.83;62.54
60267;BME280;46125;61.360;-149.532;2023-07-20T09:20:15;100637.01;;;16.11;64.06
60267;BME280;46125;61.360;-149.532;2023-07-20T09:22:44;100636.73;;;16.73;62.24
60267;BME280;46125;61.360;-149.532;2023-07-20T09:25:14;100639.11;;;15.95;64.27
60267;BME280;46125;61.360;-149.532;2023-07-20T09:27:44;100635.52;;;16.65;62.25
60267;BME280;46125;61.360;-149.532;2023-07-20T09:30:14;100640.15;;;17.20;61.26
60267;BME280;46125;61.360;-149.532;2023-07-20T09:32:44;100640.35;;;16.79;61.53
60267;BME280;46125;61.360;-149.532;2023-07-20T09:35:16;100650.00;;;16.46;62.53
60267;BME280;46125;61.360;-149.532;2023-07-20T09:37:50;100651.15;;;14.68;67.52
60267;BME280;46125;61.360;-149.532;2023-07-20T09:40:19;100645.75;;;16.36;64.01
60267;BME280;46125;61.360;-149.532;2023-07-20T09:42:48;100651.61;;;14.27;69.19
60267;BME280;46125;61.360;-149.532;2023-07-20T09:45:16;100647.95;;;16.39;63.57
60267;BME280;46125;61.360;-149.532;2023-07-20T09:47:44;100651.88;;;16.62;62.37
60267;BME280;46125;61.360;-149.532;2023-07-20T09:50:12;100647.97;;;16.72;61.92
60267;BME280;46125;61.360;-149.532;2023-07-20T09:52:42;100646.22;;;14.97;67.26
60267;BME280;46125;61.360;-149.532;2023-07-20T09:55:12;100635.16;;;15.47;65.40
60267;BME280;46125;61.360;-149.532;2023-07-20T09:57:40;100633.09;;;16.03;64.50
60267;BME280;46125;61.360;-149.532;2023-07-20T10:00:09;100633.08;;;16.32;64.47
60267;BME280;46125;61.360;-149.532;2023-07-20T10:02:42;100635.99;;;16.25;63.94
60267;BME280;46125;61.360;-149.532;2023-07-20T10:05:13;100635.84;;;16.49;63.94
60267;BME280;46125;61.360;-149.532;2023-07-20T10:07:45;100632.95;;;16.15;63.65
60267;BME280;46125;61.360;-149.532;2023-07-20T10:10:16;100638.14;;;16.15;63.85
60267;BME280;46125;61.360;-149.532;2023-07-20T10:12:48;100642.52;;;16.53;63.48
60267;BME280;46125;61.360;-149.532;2023-07-20T10:15:20;100642.21;;;16.25;63.54
60267;BME280;46125;61.360;-149.532;2023-07-20T10:18:01;100641.93;;;16.18;63.96
60267;BME280;46125;61.360;-149.532;2023-07-20T10:20:32;100640.66;;;16.00;64.38
60267;BME280;46125;61.360;-149.532;2023-07-20T10:23:03;100640.00;;;16.11;64.17
60267;BME280;46125;61.360;-149.532;2023-07-20T10:25:33;100643.04;;;16.57;63.15
60267;BME280;46125;61.360;-149.532;2023-07-20T10:28:02;100645.88;;;16.83;62.49
60267;BME280;46125;61.360;-149.532;2023-07-20T10:30:31;100641.99;;;14.97;65.39
60267;BME280;46125;61.360;-149.532;2023-07-20T10:32:59;100634.87;;;16.15;63.50
60267;BME280;46125;61.360;-149.532;2023-07-20T10:35:28;100629.10;;;16.37;62.44
60267;BME280;46125;61.360;-149.532;2023-07-20T10:38:01;100630.81;;;15.31;64.15
60267;BME280;46125;61.360;-149.532;2023-07-20T10:40:31;100630.69;;;15.14;65.39
60267;BME280;46125;61.360;-149.532;2023-07-20T10:43:02;100629.98;;;15.12;65.71
60267;BME280;46125;61.360;-149.532;2023-07-20T10:45:41;100630.97;;;16.15;61.95
60267;BME280;46125;61.360;-149.532;2023-07-20T10:48:14;100634.67;;;16.97;61.06
60267;BME280;46125;61.360;-149.532;2023-07-20T10:50:44;100636.87;;;17.03;61.07
60267;BME280;46125;61.360;-149.532;2023-07-20T10:53:15;100637.79;;;17.04;61.18
60267;BME280;46125;61.360;-149.532;2023-07-20T10:55:44;100637.66;;;15.79;62.97
60267;BME280;46125;61.360;-149.532;2023-07-20T10:58:14;100638.14;;;16.74;61.61
60267;BME280;46125;61.360;-149.532;2023-07-20T11:01:02;100637.66;;;16.84;60.63
60267;BME280;46125;61.360;-149.532;2023-07-20T11:03:32;100635.79;;;16.41;62.17
60267;BME280;46125;61.360;-149.532;2023-07-20T11:06:30;100635.66;;;16.36;61.81
60267;BME280;46125;61.360;-149.532;2023-07-20T11:09:06;100636.03;;;16.20;61.69
60267;BME280;46125;61.360;-149.532;2023-07-20T11:11:35;100634.22;;;16.17;62.57
60267;BME280;46125;61.360;-149.532;2023-07-20T11:14:04;100633.36;;;16.78;60.44
60267;BME280;46125;61.360;-149.532;2023-07-20T11:16:35;100633.37;;;17.27;59.66
60267;BME280;46125;61.360;-149.532;2023-07-20T11:19:04;100626.51;;;17.31;59.53
60267;BME280;46125;61.360;-149.532;2023-07-20T11:21:37;100628.18;;;17.22;59.88
60267;BME280;46125;61.360;-149.532;2023-07-20T11:24:07;100627.96;;;16.99;59.86
60267;BME280;46125;61.360;-149.532;2023-07-20T11:26:44;100625.84;;;16.11;61.89
60267;BME280;46125;61.360;-149.532;2023-07-20T11:29:13;100621.71;;;16.49;61.13
60267;BME280;46125;61.360;-149.532;2023-07-20T11:31:43;100619.61;;;16.81;60.22
60267;BME280;46125;61.360;-149.532;2023-07-20T11:34:14;100620.79;;;16.18;62.58
60267;BME280;46125;61.360;-149.532;2023-07-20T11:36:45;100625.98;;;16.79;60.95
60267;BME280;46125;61.360;-149.532;2023-07-20T11:39:14;100626.16;;;16.44;61.06
60267;BME280;46125;61.360;-149.532;2023-07-20T11:41:47;100626.87;;;17.27;59.75
60267;BME280;46125;61.360;-149.532;2023-07-20T11:44:17;100629.27;;;17.35;59.46
60267;BME280;46125;61.360;-149.532;2023-07-20T11:46:45;100633.73;;;17.46;59.08
60267;BME280;46125;61.360;-149.532;2023-07-20T11:49:14;100635.67;;;17.39;58.73
60267;BME280;46125;61.360;-149.532;2023-07-20T11:51:42;100637.76;;;17.65;58.75
60267;BME280;46125;61.360;-149.532;2023-07-20T11:54:10;100633.93;;;17.48;58.17
60267;BME280;46125;61.360;-149.532;2023-07-20T11:56:42;100635.39;;;17.46;58.46
60267;BME280;46125;61.360;-149.532;2023-07-20T11:59:11;100628.66;;;17.55;58.18
60267;BME280;46125;61.360;-149.532;2023-07-20T12:01:39;100628.52;;;17.56;58.21
60267;BME280;46125;61.360;-149.532;2023-07-20T12:04:08;100624.82;;;17.64;58.02
60267;BME280;46125;61.360;-149.532;2023-07-20T12:06:37;100621.84;;;17.71;57.89
60267;BME280;46125;61.360;-149.532;2023-07-20T12:09:05;100619.75;;;17.57;58.28
60267;BME280;46125;61.360;-149.532;2023-07-20T12:11:36;100618.75;;;17.27;59.06
60267;BME280;46125;61.360;-149.532;2023-07-20T12:14:07;100614.67;;;17.57;58.38
60267;BME280;46125;61.360;-149.532;2023-07-20T12:16:37;100613.87;;;17.66;58.10
60267;BME280;46125;61.360;-149.532;2023-07-20T12:19:07;100615.64;;;17.61;58.04
60267;BME280;46125;61.360;-149.532;2023-07-20T12:21:37;100617.69;;;17.53;58.16
60267;BME280;46125;61.360;-149.532;2023-07-20T12:24:07;100622.05;;;17.50;58.36
60267;BME280;46125;61.360;-149.532;2023-07-20T12:26:35;100621.59;;;17.66;58.04
60267;BME280;46125;61.360;-149.532;2023-07-20T12:29:04;100620.66;;;17.56;58.21
60267;BME280;46125;61.360;-149.532;2023-07-20T12:31:37;100621.45;;;17.41;58.44
60267;BME280;46125;61.360;-149.532;2023-07-20T12:34:05;100626.67;;;16.91;59.79